createdAt,value
2018-06-28T00:00:03.495Z,19.45
2018-06-28T00:00:44.083Z,19.54
2018-06-28T00:01:24.666Z,19.47
2018-06-28T00:02:05.208Z,19.44
2018-06-28T00:02:45.788Z,19.55
2018-06-28T00:03:26.320Z,19.55
2018-06-28T00:04:06.872Z,19.54
2018-06-28T00:04:47.432Z,19.47
2018-06-28T00:05:27.998Z,19.55
2018-06-28T00:06:08.582Z,19.47
2018-06-28T00:06:49.127Z,19.41
2018-06-28T00:07:29.686Z,19.4
2018-06-28T00:08:10.247Z,19.37
2018-06-28T00:08:50.847Z,19.48
2018-06-28T00:09:31.347Z,19.49
2018-06-28T00:10:11.886Z,19.4
2018-06-28T00:10:52.429Z,19.4
2018-06-28T00:11:33.019Z,19.48
2018-06-28T00:12:13.558Z,19.37
2018-06-28T00:12:54.088Z,19.36
2018-06-28T00:13:34.639Z,19.4
2018-06-28T00:14:15.190Z,19.37
2018-06-28T00:14:55.778Z,19.37
2018-06-28T00:15:36.300Z,19.4
2018-06-28T00:16:16.848Z,19.31
2018-06-28T00:16:57.406Z,19.41
2018-06-28T00:17:37.954Z,19.39
2018-06-28T00:18:18.493Z,19.33
2018-06-28T00:18:59.065Z,19.41
2018-06-28T00:19:39.603Z,19.36
2018-06-28T00:20:20.143Z,19.24
2018-06-28T00:21:00.704Z,19.31
2018-06-28T00:21:41.253Z,19.29
2018-06-28T00:22:21.800Z,19.29
2018-06-28T00:23:02.333Z,19.33
2018-06-28T00:23:42.909Z,19.24
2018-06-28T00:24:23.496Z,19.18
2018-06-28T00:25:04.015Z,19.16
2018-06-28T00:25:44.619Z,19.24
2018-06-28T00:26:25.164Z,19.22
2018-06-28T00:27:05.692Z,19.16
2018-06-28T00:27:46.263Z,19.22
2018-06-28T00:28:26.827Z,19.15
2018-06-28T00:29:07.373Z,19.19
2018-06-28T00:29:47.921Z,19.15
2018-06-28T00:30:28.474Z,19.22
2018-06-28T00:31:09.017Z,19.14
2018-06-28T00:31:49.549Z,19.12
2018-06-28T00:32:30.111Z,19.15
2018-06-28T00:33:10.675Z,19.22
2018-06-28T00:33:51.236Z,19.09
2018-06-28T00:34:31.817Z,19.04
2018-06-28T00:35:12.354Z,19.02
2018-06-28T00:35:52.899Z,19.02
2018-06-28T00:36:33.491Z,19.11
2018-06-28T00:37:14.027Z,19.04
2018-06-28T00:37:54.566Z,19.14
2018-06-28T00:38:35.118Z,19.02
2018-06-28T00:39:15.696Z,19.04
2018-06-28T00:39:56.245Z,19.02
2018-06-28T00:40:36.794Z,19.08
2018-06-28T00:41:17.345Z,19.04
2018-06-28T00:41:57.889Z,18.99
2018-06-28T00:42:38.436Z,19.07
2018-06-28T00:43:18.989Z,19.04
2018-06-28T00:43:59.550Z,18.96
2018-06-28T00:44:40.106Z,19.04
2018-06-28T00:45:20.644Z,18.99
2018-06-28T00:46:04.147Z,19
2018-06-28T00:46:44.706Z,19.04
2018-06-28T00:47:25.268Z,18.93
2018-06-28T00:48:05.808Z,19.04
2018-06-28T00:48:46.343Z,19.07
2018-06-28T00:49:26.896Z,18.89
2018-06-28T00:50:07.461Z,19.08
2018-06-28T00:50:47.997Z,18.93
2018-06-28T00:51:28.536Z,18.98
2018-06-28T00:52:09.086Z,19.07
2018-06-28T00:52:49.652Z,19.04
2018-06-28T00:53:30.190Z,18.88
2018-06-28T00:54:10.758Z,18.88
2018-06-28T00:54:51.291Z,18.98
2018-06-28T00:55:31.870Z,18.89
2018-06-28T00:56:12.408Z,18.96
2018-06-28T00:56:52.972Z,18.93
2018-06-28T00:57:33.531Z,18.89
2018-06-28T00:58:14.160Z,18.86
2018-06-28T00:58:54.692Z,18.88
2018-06-28T00:59:35.250Z,18.95
2018-06-28T01:00:15.808Z,18.95
2018-06-28T01:00:56.366Z,18.89
2018-06-28T01:01:36.930Z,18.86
2018-06-28T01:02:17.509Z,18.92
2018-06-28T01:02:58.072Z,18.86
2018-06-28T01:03:38.645Z,18.9
2018-06-28T01:04:19.215Z,18.88
2018-06-28T01:04:59.776Z,18.88
2018-06-28T01:05:40.316Z,18.93
2018-06-28T01:06:20.866Z,18.83
2018-06-28T01:07:01.423Z,18.78
2018-06-28T01:07:41.964Z,18.77
2018-06-28T01:08:22.506Z,18.8
2018-06-28T01:09:03.065Z,18.73
2018-06-28T01:09:43.631Z,18.86
2018-06-28T01:10:24.202Z,18.86
2018-06-28T01:11:04.726Z,18.86
2018-06-28T01:11:45.277Z,18.86
2018-06-28T01:12:25.814Z,18.8
2018-06-28T01:13:06.357Z,18.8
2018-06-28T01:13:46.903Z,18.78
2018-06-28T01:14:27.452Z,18.74
2018-06-28T01:15:08.012Z,18.74
2018-06-28T01:15:48.566Z,18.78
2018-06-28T01:16:29.129Z,18.73
2018-06-28T01:17:09.655Z,18.75
2018-06-28T01:17:50.226Z,18.77
2018-06-28T01:18:30.785Z,18.75
2018-06-28T01:19:11.321Z,18.75
2018-06-28T01:19:51.865Z,18.73
2018-06-28T01:20:32.426Z,18.68
2018-06-28T01:21:12.969Z,18.74
2018-06-28T01:21:53.539Z,18.65
2018-06-28T01:22:34.085Z,18.74
2018-06-28T01:23:14.637Z,18.62
2018-06-28T01:23:55.163Z,18.71
2018-06-28T01:24:35.707Z,18.66
2018-06-28T01:25:16.232Z,18.6
2018-06-28T01:25:56.779Z,18.63
2018-06-28T01:26:37.334Z,18.63
2018-06-28T01:27:17.902Z,18.62
2018-06-28T01:27:58.451Z,18.55
2018-06-28T01:28:39.015Z,18.68
2018-06-28T01:29:19.550Z,18.53
2018-06-28T01:30:00.101Z,18.6
2018-06-28T01:30:40.680Z,18.55
2018-06-28T01:31:21.247Z,18.6
2018-06-28T01:32:01.789Z,18.6
2018-06-28T01:32:42.332Z,18.62
2018-06-28T01:33:22.868Z,18.58
2018-06-28T01:34:03.414Z,18.6
2018-06-28T01:34:43.961Z,18.59
2018-06-28T01:35:24.495Z,18.6
2018-06-28T01:36:05.030Z,18.53
2018-06-28T01:36:45.586Z,18.52
2018-06-28T01:37:26.166Z,18.56
2018-06-28T01:38:06.707Z,18.52
2018-06-28T01:38:47.257Z,18.55
2018-06-28T01:39:27.804Z,18.5
2018-06-28T01:40:08.381Z,18.45
2018-06-28T01:40:48.940Z,18.53
2018-06-28T01:41:29.499Z,18.52
2018-06-28T01:42:10.057Z,18.49
2018-06-28T01:42:50.599Z,18.49
2018-06-28T01:43:31.135Z,18.45
2018-06-28T01:44:11.709Z,18.45
2018-06-28T01:44:52.239Z,18.5
2018-06-28T01:45:32.787Z,18.5
2018-06-28T01:46:13.335Z,18.44
2018-06-28T01:46:53.959Z,18.47
2018-06-28T01:47:34.434Z,18.49
2018-06-28T01:48:14.989Z,18.43
2018-06-28T01:48:55.541Z,18.44
2018-06-28T01:49:36.115Z,18.47
2018-06-28T01:50:16.682Z,18.37
2018-06-28T01:50:57.243Z,18.41
2018-06-28T01:51:37.818Z,18.47
2018-06-28T01:52:18.387Z,18.38
2018-06-28T01:52:58.974Z,18.45
2018-06-28T01:53:39.490Z,18.47
2018-06-28T01:54:20.041Z,18.45
2018-06-28T01:55:00.600Z,18.5
2018-06-28T01:55:41.154Z,18.38
2018-06-28T01:56:21.715Z,18.41
2018-06-28T01:57:02.239Z,18.44
2018-06-28T01:57:42.769Z,18.43
2018-06-28T01:58:23.360Z,18.41
2018-06-28T01:59:03.918Z,18.41
2018-06-28T01:59:44.483Z,18.41
2018-06-28T02:00:25.052Z,18.44
2018-06-28T02:01:05.589Z,18.41
2018-06-28T02:01:46.157Z,18.41
2018-06-28T02:02:26.721Z,18.37
2018-06-28T02:03:07.292Z,18.38
2018-06-28T02:03:47.844Z,18.49
2018-06-28T02:04:28.385Z,18.49
2018-06-28T02:05:08.936Z,18.43
2018-06-28T02:05:49.500Z,18.45
2018-06-28T02:06:30.046Z,18.38
2018-06-28T02:07:10.574Z,18.45
2018-06-28T02:07:51.147Z,18.34
2018-06-28T02:08:31.709Z,18.31
2018-06-28T02:09:12.261Z,18.33
2018-06-28T02:09:52.803Z,18.31
2018-06-28T02:10:33.350Z,18.33
2018-06-28T02:11:13.920Z,18.37
2018-06-28T02:11:54.467Z,18.37
2018-06-28T02:12:34.997Z,18.33
2018-06-28T02:13:15.556Z,18.28
2018-06-28T02:13:56.117Z,18.33
2018-06-28T02:14:36.667Z,18.28
2018-06-28T02:15:17.212Z,18.26
2018-06-28T02:15:57.780Z,18.26
2018-06-28T02:16:38.322Z,18.26
2018-06-28T02:17:18.871Z,18.23
2018-06-28T02:17:59.394Z,18.29
2018-06-28T02:18:39.951Z,18.29
2018-06-28T02:19:20.508Z,18.25
2018-06-28T02:20:01.041Z,18.26
2018-06-28T02:20:41.585Z,18.28
2018-06-28T02:21:22.134Z,18.23
2018-06-28T02:22:02.703Z,18.23
2018-06-28T02:22:43.273Z,18.23
2018-06-28T02:23:23.825Z,18.23
2018-06-28T02:24:04.399Z,18.29
2018-06-28T02:24:44.984Z,18.28
2018-06-28T02:25:25.556Z,18.25
2018-06-28T02:26:06.118Z,18.23
2018-06-28T02:26:46.694Z,18.28
2018-06-28T02:27:27.235Z,18.22
2018-06-28T02:28:07.802Z,18.23
2018-06-28T02:28:48.364Z,18.35
2018-06-28T02:29:28.924Z,18.4
2018-06-28T02:30:09.501Z,18.35
2018-06-28T02:30:50.064Z,18.29
2018-06-28T02:31:30.610Z,18.19
2018-06-28T02:32:11.171Z,18.19
2018-06-28T02:32:51.723Z,18.25
2018-06-28T02:33:32.280Z,18.29
2018-06-28T02:34:12.836Z,18.22
2018-06-28T02:34:53.408Z,18.26
2018-06-28T02:35:34.014Z,18.28
2018-06-28T02:36:14.596Z,18.28
2018-06-28T02:36:55.142Z,18.31
2018-06-28T02:37:35.704Z,18.28
2018-06-28T02:38:16.258Z,18.25
2018-06-28T02:38:56.820Z,18.19
2018-06-28T02:39:37.390Z,18.2
2018-06-28T02:40:17.970Z,18.25
2018-06-28T02:40:58.523Z,18.25
2018-06-28T02:41:39.085Z,18.18
2018-06-28T02:42:19.652Z,18.25
2018-06-28T02:43:00.221Z,18.19
2018-06-28T02:43:40.781Z,18.23
2018-06-28T02:44:21.344Z,18.23
2018-06-28T02:45:01.919Z,18.2
2018-06-28T02:45:42.490Z,18.18
2018-06-28T02:46:23.063Z,18.15
2018-06-28T02:47:03.614Z,18.28
2018-06-28T02:47:44.176Z,18.16
2018-06-28T02:48:24.737Z,18.26
2018-06-28T02:49:05.306Z,18.26
2018-06-28T02:49:45.887Z,18.16
2018-06-28T02:50:26.456Z,18.26
2018-06-28T02:51:07.027Z,18.26
2018-06-28T02:51:47.582Z,18.26
2018-06-28T02:52:28.156Z,18.22
2018-06-28T02:53:08.694Z,18.28
2018-06-28T02:53:49.265Z,18.23
2018-06-28T02:54:29.841Z,18.19
2018-06-28T02:55:10.410Z,18.15
2018-06-28T02:55:50.997Z,18.2
2018-06-28T02:56:31.532Z,18.19
2018-06-28T02:57:12.069Z,18.13
2018-06-28T02:57:52.648Z,18.16
2018-06-28T02:58:33.197Z,18.16
2018-06-28T02:59:13.767Z,18.19
2018-06-28T02:59:54.327Z,18.19
2018-06-28T03:00:34.884Z,18.19
2018-06-28T03:01:15.459Z,18.13
2018-06-28T03:01:56.020Z,18.16
2018-06-28T03:02:36.586Z,18.07
2018-06-28T03:03:17.123Z,18.08
2018-06-28T03:03:57.672Z,18.13
2018-06-28T03:04:38.221Z,18.11
2018-06-28T03:05:18.793Z,18.11
2018-06-28T03:05:59.339Z,18.11
2018-06-28T03:06:39.874Z,18.08
2018-06-28T03:07:20.437Z,18.1
2018-06-28T03:08:00.993Z,18.11
2018-06-28T03:08:41.532Z,18.18
2018-06-28T03:09:22.085Z,18.13
2018-06-28T03:10:02.660Z,18.16
2018-06-28T03:10:43.228Z,18.16
2018-06-28T03:11:23.783Z,18.07
2018-06-28T03:12:04.362Z,18.07
2018-06-28T03:12:44.976Z,18.05
2018-06-28T03:13:25.474Z,18.08
2018-06-28T03:14:06.023Z,18.08
2018-06-28T03:14:46.585Z,18.1
2018-06-28T03:15:27.135Z,18.07
2018-06-28T03:16:07.692Z,18.03
2018-06-28T03:16:48.236Z,18.04
2018-06-28T03:17:28.788Z,18.05
2018-06-28T03:18:09.361Z,18.05
2018-06-28T03:18:50.260Z,18.15
2018-06-28T03:19:30.823Z,18.07
2018-06-28T03:20:11.371Z,18.15
2018-06-28T03:20:51.935Z,18.11
2018-06-28T03:21:32.492Z,18.16
2018-06-28T03:22:13.080Z,18.15
2018-06-28T03:22:53.621Z,18.13
2018-06-28T03:23:34.170Z,18.16
2018-06-28T03:24:14.757Z,18.18
2018-06-28T03:24:55.460Z,18.22
2018-06-28T03:25:36.014Z,18.16
2018-06-28T03:26:16.576Z,18.16
2018-06-28T03:26:57.138Z,18.18
2018-06-28T03:27:37.747Z,18.18
2018-06-28T03:28:18.294Z,18.2
2018-06-28T03:28:58.845Z,18.26
2018-06-28T03:29:39.407Z,18.25
2018-06-28T03:30:19.963Z,18.23
2018-06-28T03:31:00.570Z,18.28
2018-06-28T03:31:41.073Z,18.28
2018-06-28T03:32:21.632Z,18.28
2018-06-28T03:33:02.194Z,18.28
2018-06-28T03:33:42.744Z,18.26
2018-06-28T03:34:23.309Z,18.26
2018-06-28T03:35:04.289Z,18.23
2018-06-28T03:35:44.863Z,18.34
2018-06-28T03:36:25.417Z,18.34
2018-06-28T03:37:05.976Z,18.29
2018-06-28T03:37:46.588Z,18.33
2018-06-28T03:38:27.117Z,18.35
2018-06-28T03:39:07.687Z,18.28
2018-06-28T03:39:48.228Z,18.34
2018-06-28T03:40:28.801Z,18.34
2018-06-28T03:41:09.357Z,18.35
2018-06-28T03:41:49.926Z,18.29
2018-06-28T03:42:30.499Z,18.34
2018-06-28T03:43:11.052Z,18.35
2018-06-28T03:43:51.608Z,18.26
2018-06-28T03:44:32.183Z,18.28
2018-06-28T03:45:12.743Z,18.23
2018-06-28T03:45:53.391Z,18.26
2018-06-28T03:46:33.892Z,18.29
2018-06-28T03:47:14.455Z,18.29
2018-06-28T03:47:55.048Z,18.28
2018-06-28T03:48:35.615Z,18.34
2018-06-28T03:49:16.201Z,18.33
2018-06-28T03:49:56.763Z,18.23
2018-06-28T03:50:37.336Z,18.29
2018-06-28T03:51:17.900Z,18.35
2018-06-28T03:51:58.466Z,18.34
2018-06-28T03:52:39.043Z,18.37
2018-06-28T03:53:19.622Z,18.28
2018-06-28T03:54:00.171Z,18.34
2018-06-28T03:54:40.743Z,18.38
2018-06-28T03:55:21.310Z,18.28
2018-06-28T03:56:01.873Z,18.28
2018-06-28T03:56:42.424Z,18.31
2018-06-28T03:57:23.016Z,18.31
2018-06-28T03:58:03.582Z,18.23
2018-06-28T03:58:44.147Z,18.34
2018-06-28T03:59:24.769Z,18.33
2018-06-28T04:00:05.329Z,18.29
2018-06-28T04:00:45.889Z,18.34
2018-06-28T04:01:26.462Z,18.28
2018-06-28T04:02:07.035Z,18.29
2018-06-28T04:02:47.589Z,18.34
2018-06-28T04:03:28.165Z,18.28
2018-06-28T04:04:08.712Z,18.29
2018-06-28T04:04:49.306Z,18.29
2018-06-28T04:05:29.883Z,18.23
2018-06-28T04:06:10.452Z,18.35
2018-06-28T04:06:50.999Z,18.33
2018-06-28T04:07:31.570Z,18.26
2018-06-28T04:08:12.138Z,18.4
2018-06-28T04:08:52.691Z,18.31
2018-06-28T04:09:33.231Z,18.34
2018-06-28T04:10:13.781Z,18.29
2018-06-28T04:10:54.366Z,18.34
2018-06-28T04:11:34.928Z,18.33
2018-06-28T04:12:15.499Z,18.38
2018-06-28T04:12:56.057Z,18.28
2018-06-28T04:13:36.608Z,18.29
2018-06-28T04:14:17.172Z,18.26
2018-06-28T04:14:57.730Z,18.37
2018-06-28T04:15:38.303Z,18.35
2018-06-28T04:16:18.875Z,18.23
2018-06-28T04:16:59.421Z,18.34
2018-06-28T04:17:39.982Z,18.28
2018-06-28T04:18:20.541Z,18.34
2018-06-28T04:19:01.110Z,18.33
2018-06-28T04:19:41.681Z,18.25
2018-06-28T04:20:22.280Z,18.34
2018-06-28T04:21:02.841Z,18.28
2018-06-28T04:21:43.382Z,18.26
2018-06-28T04:22:23.973Z,18.37
2018-06-28T04:23:04.532Z,18.31
2018-06-28T04:23:45.087Z,18.34
2018-06-28T04:24:25.636Z,18.35
2018-06-28T04:25:06.186Z,18.31
2018-06-28T04:25:46.746Z,18.33
2018-06-28T04:26:27.309Z,18.37
2018-06-28T04:27:07.865Z,18.37
2018-06-28T04:27:48.431Z,18.44
2018-06-28T04:28:28.992Z,18.49
2018-06-28T04:29:09.560Z,18.45
2018-06-28T04:29:50.116Z,18.45
2018-06-28T04:30:30.679Z,18.43
2018-06-28T04:31:11.241Z,18.41
2018-06-28T04:31:51.819Z,18.41
2018-06-28T04:32:32.430Z,18.4
2018-06-28T04:33:13.018Z,18.43
2018-06-28T04:33:53.574Z,18.41
2018-06-28T04:34:34.149Z,18.49
2018-06-28T04:35:14.721Z,18.43
2018-06-28T04:35:55.277Z,18.44
2018-06-28T04:36:35.846Z,18.34
2018-06-28T04:37:16.406Z,18.4
2018-06-28T04:37:56.968Z,18.44
2018-06-28T04:38:37.567Z,18.45
2018-06-28T04:39:18.148Z,18.41
2018-06-28T04:39:58.685Z,18.37
2018-06-28T04:40:39.251Z,18.38
2018-06-28T04:41:19.805Z,18.45
2018-06-28T04:42:00.337Z,18.5
2018-06-28T04:42:40.905Z,18.41
2018-06-28T04:43:21.462Z,18.33
2018-06-28T04:44:02.033Z,18.45
2018-06-28T04:44:42.591Z,18.37
2018-06-28T04:45:23.172Z,18.43
2018-06-28T04:46:03.746Z,18.44
2018-06-28T04:46:44.339Z,18.47
2018-06-28T04:47:24.974Z,18.45
2018-06-28T04:48:05.526Z,18.41
2018-06-28T04:48:46.096Z,18.43
2018-06-28T04:49:26.663Z,18.45
2018-06-28T04:50:07.237Z,18.55
2018-06-28T04:50:47.801Z,18.52
2018-06-28T04:51:28.402Z,18.49
2018-06-28T04:52:08.966Z,18.49
2018-06-28T04:52:49.521Z,18.55
2018-06-28T04:53:30.071Z,18.55
2018-06-28T04:54:10.621Z,18.53
2018-06-28T04:54:51.173Z,18.52
2018-06-28T04:55:31.768Z,18.6
2018-06-28T04:56:12.318Z,18.68
2018-06-28T04:56:52.872Z,18.63
2018-06-28T04:57:33.453Z,18.73
2018-06-28T04:58:14.011Z,18.86
2018-06-28T04:58:54.599Z,18.8
2018-06-28T04:59:35.134Z,18.9
2018-06-28T05:00:15.686Z,18.92
2018-06-28T05:00:56.252Z,18.88
2018-06-28T05:01:36.810Z,18.89
2018-06-28T05:02:17.391Z,18.93
2018-06-28T05:02:57.938Z,19
2018-06-28T05:03:38.490Z,19.02
2018-06-28T05:04:19.049Z,19.14
2018-06-28T05:04:59.623Z,19.15
2018-06-28T05:05:40.201Z,19.19
2018-06-28T05:06:20.756Z,19.29
2018-06-28T05:07:01.336Z,19.24
2018-06-28T05:07:41.879Z,19.27
2018-06-28T05:08:22.415Z,19.26
2018-06-28T05:09:03.057Z,19.33
2018-06-28T05:09:43.557Z,19.34
2018-06-28T05:10:24.145Z,19.34
2018-06-28T05:11:04.645Z,19.3
2018-06-28T05:11:45.293Z,19.34
2018-06-28T05:12:25.863Z,19.36
2018-06-28T05:13:06.450Z,19.44
2018-06-28T05:13:47.062Z,19.48
2018-06-28T05:14:27.610Z,19.47
2018-06-28T05:15:08.174Z,19.37
2018-06-28T05:15:48.745Z,19.4
2018-06-28T05:16:29.310Z,19.47
2018-06-28T05:17:09.891Z,19.51
2018-06-28T05:17:50.443Z,19.44
2018-06-28T05:18:31.013Z,19.44
2018-06-28T05:19:11.552Z,19.47
2018-06-28T05:19:52.118Z,19.54
2018-06-28T05:20:32.678Z,19.62
2018-06-28T05:21:13.239Z,19.54
2018-06-28T05:21:53.801Z,19.62
2018-06-28T05:22:34.387Z,19.73
2018-06-28T05:23:14.941Z,19.63
2018-06-28T05:23:55.477Z,19.59
2018-06-28T05:24:36.041Z,19.63
2018-06-28T05:25:16.601Z,19.71
2018-06-28T05:25:57.180Z,19.7
2018-06-28T05:26:37.747Z,19.67
2018-06-28T05:27:18.331Z,19.76
2018-06-28T05:27:58.903Z,19.66
2018-06-28T05:28:39.465Z,19.85
2018-06-28T05:29:20.020Z,19.79
2018-06-28T05:30:00.606Z,19.94
2018-06-28T05:30:41.162Z,19.88
2018-06-28T05:31:21.711Z,19.91
2018-06-28T05:32:02.281Z,20.02
2018-06-28T05:32:42.846Z,19.91
2018-06-28T05:33:23.414Z,20.07
2018-06-28T05:34:03.985Z,19.99
2018-06-28T05:34:44.588Z,20.04
2018-06-28T05:35:25.112Z,20.09
2018-06-28T05:36:05.704Z,20.22
2018-06-28T05:36:46.231Z,20.18
2018-06-28T05:37:26.791Z,20.18
2018-06-28T05:38:07.407Z,20.14
2018-06-28T05:38:47.920Z,20.21
2018-06-28T05:39:28.492Z,20.25
2018-06-28T05:40:09.033Z,20.26
2018-06-28T05:40:49.621Z,20.29
2018-06-28T05:41:30.176Z,20.32
2018-06-28T05:42:12.849Z,20.29
2018-06-28T05:42:53.724Z,20.44
2018-06-28T05:43:34.361Z,20.39
2018-06-28T05:44:14.949Z,20.58
2018-06-28T05:44:55.876Z,20.75
2018-06-28T05:45:36.871Z,20.8
2018-06-28T05:46:18.167Z,20.9
2018-06-28T05:46:58.911Z,21.06
2018-06-28T05:47:39.816Z,21.18
2018-06-28T05:48:20.355Z,21.21
2018-06-28T05:49:00.907Z,21.3
2018-06-28T05:49:41.913Z,21.48
2018-06-28T05:50:22.532Z,21.45
2018-06-28T05:51:03.145Z,21.62
2018-06-28T05:51:43.973Z,21.67
2018-06-28T05:52:24.665Z,21.82
2018-06-28T05:53:05.212Z,21.92
2018-06-28T05:53:45.851Z,21.96
2018-06-28T05:54:26.409Z,21.99
2018-06-28T05:55:06.979Z,22.02
2018-06-28T05:55:47.524Z,21.99
2018-06-28T05:56:28.086Z,22.02
2018-06-28T05:57:08.651Z,22.07
2018-06-28T05:57:49.176Z,22.06
2018-06-28T05:58:29.764Z,22.1
2018-06-28T05:59:10.317Z,22.15
2018-06-28T05:59:50.885Z,22.04
2018-06-28T06:00:31.434Z,22.15
2018-06-28T06:01:11.988Z,22.18
2018-06-28T06:01:52.518Z,22.17
2018-06-28T06:02:33.083Z,22.3
2018-06-28T06:03:13.637Z,22.25
2018-06-28T06:03:54.213Z,22.3
2018-06-28T06:04:34.742Z,22.33
2018-06-28T06:05:15.290Z,22.33
2018-06-28T06:05:55.873Z,22.39
2018-06-28T06:06:36.417Z,22.45
2018-06-28T06:07:16.975Z,22.38
2018-06-28T06:07:57.541Z,22.38
2018-06-28T06:08:38.247Z,22.43
2018-06-28T06:09:18.744Z,22.51
2018-06-28T06:09:59.286Z,22.41
2018-06-28T06:10:39.901Z,22.55
2018-06-28T06:11:20.461Z,22.55
2018-06-28T06:12:01.130Z,22.54
2018-06-28T06:12:42.002Z,22.59
2018-06-28T06:13:22.556Z,22.65
2018-06-28T06:14:03.089Z,22.72
2018-06-28T06:14:43.684Z,22.7
2018-06-28T06:15:24.235Z,22.91
2018-06-28T06:16:04.800Z,23.06
2018-06-28T06:16:45.338Z,23.02
2018-06-28T06:17:25.996Z,23.13
2018-06-28T06:18:06.606Z,23.06
2018-06-28T06:18:47.374Z,23.15
2018-06-28T06:19:27.929Z,23.17
2018-06-28T06:20:08.713Z,23.36
2018-06-28T06:20:49.315Z,23.2
2018-06-28T06:21:29.876Z,23.44
2018-06-28T06:22:10.593Z,23.44
2018-06-28T06:22:51.191Z,23.46
2018-06-28T06:23:31.741Z,23.32
2018-06-28T06:24:12.309Z,23.43
2018-06-28T06:24:52.910Z,23.4
2018-06-28T06:25:33.471Z,23.41
2018-06-28T06:26:14.087Z,23.36
2018-06-28T06:26:54.601Z,23.47
2018-06-28T06:27:35.144Z,23.39
2018-06-28T06:28:15.720Z,23.48
2018-06-28T06:28:56.333Z,23.56
2018-06-28T06:29:36.999Z,23.63
2018-06-28T06:30:17.532Z,23.66
2018-06-28T06:30:58.124Z,23.63
2018-06-28T06:31:38.765Z,23.69
2018-06-28T06:32:19.351Z,23.78
2018-06-28T06:32:59.959Z,23.77
2018-06-28T06:33:40.451Z,23.78
2018-06-28T06:34:21.012Z,23.81
2018-06-28T06:35:01.608Z,23.84
2018-06-28T06:35:42.142Z,23.81
2018-06-28T06:36:22.736Z,23.84
2018-06-28T06:37:03.302Z,23.87
2018-06-28T06:37:43.896Z,23.95
2018-06-28T06:38:24.424Z,24.01
2018-06-28T06:39:04.972Z,24.01
2018-06-28T06:39:45.553Z,24.02
2018-06-28T06:40:26.117Z,24.05
2018-06-28T06:41:06.688Z,24.14
2018-06-28T06:41:47.276Z,24.13
2018-06-28T06:42:27.830Z,24.18
2018-06-28T06:43:08.365Z,24.03
2018-06-28T06:43:48.950Z,24.13
2018-06-28T06:44:29.607Z,24.16
2018-06-28T06:45:10.207Z,24.11
2018-06-28T06:45:50.796Z,24.23
2018-06-28T06:46:31.375Z,24.11
2018-06-28T06:47:11.922Z,24.17
2018-06-28T06:47:52.593Z,24.26
2018-06-28T06:48:33.148Z,24.24
2018-06-28T06:49:13.734Z,24.4
2018-06-28T06:49:54.283Z,24.47
2018-06-28T06:50:34.942Z,24.58
2018-06-28T06:51:15.524Z,24.53
2018-06-28T06:51:56.156Z,24.65
2018-06-28T06:52:36.715Z,24.61
2018-06-28T06:53:17.275Z,24.69
2018-06-28T06:53:57.820Z,24.69
2018-06-28T06:54:38.402Z,24.8
2018-06-28T06:55:18.960Z,24.91
2018-06-28T06:55:59.540Z,24.81
2018-06-28T06:56:40.112Z,24.84
2018-06-28T06:57:20.710Z,24.84
2018-06-28T06:58:01.262Z,24.98
2018-06-28T06:58:41.854Z,24.95
2018-06-28T06:59:22.438Z,24.96
2018-06-28T07:00:03.114Z,25.07
2018-06-28T07:00:43.760Z,25.04
2018-06-28T07:01:24.356Z,24.99
2018-06-28T07:02:04.918Z,25.06
2018-06-28T07:02:45.462Z,25.13
2018-06-28T07:03:26.053Z,25.08
2018-06-28T07:04:06.590Z,24.99
2018-06-28T07:04:47.164Z,25.1
2018-06-28T07:05:27.694Z,25.01
2018-06-28T07:06:08.245Z,25.06
2018-06-28T07:06:48.825Z,25.08
2018-06-28T07:07:29.385Z,25.16
2018-06-28T07:08:09.947Z,25.18
2018-06-28T07:08:50.556Z,25.28
2018-06-28T07:09:31.103Z,25.25
2018-06-28T07:10:11.753Z,25.35
2018-06-28T07:10:52.241Z,25.4
2018-06-28T07:11:32.791Z,25.38
2018-06-28T07:12:13.380Z,25.36
2018-06-28T07:12:53.952Z,25.36
2018-06-28T07:13:34.499Z,25.29
2018-06-28T07:14:15.042Z,25.29
2018-06-28T07:14:55.648Z,25.25
2018-06-28T07:15:36.212Z,25.32
2018-06-28T07:16:16.800Z,25.25
2018-06-28T07:16:57.381Z,25.32
2018-06-28T07:17:37.944Z,25.33
2018-06-28T07:18:18.558Z,25.36
2018-06-28T07:18:59.122Z,25.44
2018-06-28T07:19:39.690Z,25.41
2018-06-28T07:20:20.246Z,25.43
2018-06-28T07:21:01.042Z,25.43
2018-06-28T07:21:41.750Z,25.41
2018-06-28T07:22:22.416Z,25.36
2018-06-28T07:23:02.967Z,25.43
2018-06-28T07:23:43.478Z,25.35
2018-06-28T07:24:24.042Z,25.4
2018-06-28T07:25:04.648Z,25.46
2018-06-28T07:25:45.171Z,25.41
2018-06-28T07:26:25.772Z,25.44
2018-06-28T07:27:06.347Z,25.43
2018-06-28T07:27:46.897Z,25.4
2018-06-28T07:28:27.561Z,25.5
2018-06-28T07:29:08.072Z,25.4
2018-06-28T07:29:48.660Z,25.5
2018-06-28T07:30:29.171Z,25.62
2018-06-28T07:31:09.728Z,25.46
2018-06-28T07:31:50.263Z,25.55
2018-06-28T07:32:30.807Z,25.48
2018-06-28T07:33:11.475Z,25.5
2018-06-28T07:33:51.998Z,25.54
2018-06-28T07:34:32.541Z,25.58
2018-06-28T07:35:13.072Z,25.65
2018-06-28T07:35:53.639Z,25.72
2018-06-28T07:36:34.223Z,25.7
2018-06-28T07:37:14.859Z,25.68
2018-06-28T07:37:55.436Z,25.8
2018-06-28T07:38:36.016Z,25.91
2018-06-28T07:39:16.591Z,25.88
2018-06-28T07:39:57.160Z,25.96
2018-06-28T07:40:37.734Z,25.99
2018-06-28T07:41:18.306Z,26.02
2018-06-28T07:41:58.852Z,26.03
2018-06-28T07:42:39.406Z,26.03
2018-06-28T07:43:19.979Z,26.09
2018-06-28T07:44:00.533Z,26.1
2018-06-28T07:44:41.111Z,26.16
2018-06-28T07:45:21.640Z,26.19
2018-06-28T07:46:02.215Z,26.22
2018-06-28T07:46:42.867Z,26.21
2018-06-28T07:47:23.380Z,26.19
2018-06-28T07:48:03.928Z,26.1
2018-06-28T07:48:44.501Z,26.28
2018-06-28T07:49:25.071Z,26.28
2018-06-28T07:50:05.602Z,26.26
2018-06-28T07:50:46.178Z,26.29
2018-06-28T07:51:26.740Z,26.28
2018-06-28T07:52:07.312Z,26.26
2018-06-28T07:52:47.896Z,26.34
2018-06-28T07:53:28.459Z,26.37
2018-06-28T07:54:09.026Z,26.41
2018-06-28T07:54:49.645Z,26.44
2018-06-28T07:55:30.172Z,26.56
2018-06-28T07:56:10.763Z,26.6
2018-06-28T07:56:51.341Z,26.56
2018-06-28T07:57:31.946Z,26.44
2018-06-28T07:58:12.489Z,26.45
2018-06-28T07:58:53.050Z,26.43
2018-06-28T07:59:33.625Z,26.47
2018-06-28T08:00:14.218Z,26.43
2018-06-28T08:00:54.769Z,26.55
2018-06-28T08:01:35.320Z,26.55
2018-06-28T08:02:15.875Z,26.47
2018-06-28T08:02:56.504Z,26.53
2018-06-28T08:03:36.999Z,26.52
2018-06-28T08:04:17.575Z,26.63
2018-06-28T08:04:58.144Z,26.62
2018-06-28T08:05:38.695Z,26.66
2018-06-28T08:06:19.226Z,26.73
2018-06-28T08:06:59.767Z,26.66
2018-06-28T08:07:40.308Z,26.65
2018-06-28T08:08:20.862Z,26.52
2018-06-28T08:09:01.407Z,26.55
2018-06-28T08:09:42.034Z,26.47
2018-06-28T08:10:22.607Z,26.45
2018-06-28T08:11:03.158Z,26.34
2018-06-28T08:11:43.726Z,26.45
2018-06-28T08:12:24.333Z,26.47
2018-06-28T08:13:04.982Z,26.47
2018-06-28T08:13:45.582Z,26.48
2018-06-28T08:14:26.131Z,26.44
2018-06-28T08:15:06.693Z,26.45
2018-06-28T08:15:47.236Z,26.52
2018-06-28T08:16:27.787Z,26.58
2018-06-28T08:17:08.327Z,26.53
2018-06-28T08:17:48.878Z,26.52
2018-06-28T08:18:29.430Z,26.58
2018-06-28T08:19:09.971Z,26.51
2018-06-28T08:19:50.554Z,26.51
2018-06-28T08:20:31.117Z,26.47
2018-06-28T08:21:11.663Z,26.33
2018-06-28T08:21:52.195Z,26.4
2018-06-28T08:22:32.760Z,26.36
2018-06-28T08:23:13.319Z,26.37
2018-06-28T08:23:53.866Z,26.34
2018-06-28T08:24:34.435Z,26.28
2018-06-28T08:25:15.008Z,26.28
2018-06-28T08:25:55.525Z,26.25
2018-06-28T08:26:36.079Z,26.26
2018-06-28T08:27:16.739Z,26.28
2018-06-28T08:27:57.304Z,26.28
2018-06-28T08:28:37.852Z,26.28
2018-06-28T08:29:18.429Z,26.29
2018-06-28T08:29:58.977Z,26.34
2018-06-28T08:30:39.545Z,26.34
2018-06-28T08:31:20.084Z,26.41
2018-06-28T08:32:00.641Z,26.43
2018-06-28T08:32:41.291Z,26.37
2018-06-28T08:33:21.833Z,26.36
2018-06-28T08:34:02.382Z,26.37
2018-06-28T08:34:42.962Z,26.44
2018-06-28T08:35:23.542Z,26.4
2018-06-28T08:36:04.116Z,26.4
2018-06-28T08:36:44.688Z,26.37
2018-06-28T08:37:25.259Z,26.4
2018-06-28T08:38:05.816Z,26.4
2018-06-28T08:38:46.403Z,26.38
2018-06-28T08:39:26.957Z,26.31
2018-06-28T08:40:07.508Z,26.36
2018-06-28T08:40:48.062Z,26.4
2018-06-28T08:41:28.620Z,26.41
2018-06-28T08:42:09.175Z,26.26
2018-06-28T08:42:49.702Z,26.31
2018-06-28T08:43:30.283Z,26.26
2018-06-28T08:44:10.837Z,26.25